createdAt,value
2019-03-25T00:02:29.127Z,3.60
2019-03-25T00:04:57.521Z,3.60
2019-03-25T00:07:25.987Z,3.60
2019-03-25T00:09:54.203Z,3.50
2019-03-25T00:12:22.631Z,3.60
2019-03-25T00:14:50.905Z,3.50
2019-03-25T00:17:19.198Z,3.50
2019-03-25T00:19:47.771Z,3.30
2019-03-25T00:22:16.024Z,3.30
2019-03-25T00:24:44.463Z,3.20
2019-03-25T00:27:19.918Z,3.30
2019-03-25T00:29:48.143Z,3.20
2019-03-25T00:32:16.313Z,3.10
2019-03-25T00:34:44.621Z,3.10
2019-03-25T00:37:12.835Z,2.80
2019-03-25T00:39:41.074Z,2.90
2019-03-25T00:42:09.547Z,2.90
2019-03-25T00:44:37.817Z,2.90
2019-03-25T00:47:05.995Z,2.80
2019-03-25T00:49:34.581Z,2.80
2019-03-25T00:52:02.869Z,2.70
2019-03-25T00:54:31.053Z,2.70
2019-03-25T00:56:59.341Z,2.60
2019-03-25T00:59:27.551Z,2.70
2019-03-25T01:01:55.733Z,2.70
2019-03-25T01:04:24.059Z,2.70
2019-03-25T01:06:52.315Z,2.70
2019-03-25T01:09:20.551Z,2.70
2019-03-25T01:11:49.564Z,2.60
2019-03-25T01:14:17.895Z,2.60
2019-03-25T01:16:46.102Z,2.50
2019-03-25T01:19:14.335Z,2.50
2019-03-25T01:21:42.554Z,2.40
2019-03-25T01:24:10.908Z,2.30
2019-03-25T01:26:39.189Z,2.30
2019-03-25T01:29:07.462Z,2.30
2019-03-25T01:31:35.626Z,2.30
2019-03-25T01:34:07.135Z,2.30
2019-03-25T01:36:35.375Z,2.30
2019-03-25T01:39:07.028Z,2.20
2019-03-25T01:41:35.551Z,2.10
2019-03-25T01:44:03.940Z,2.10
2019-03-25T01:46:32.177Z,2.10
2019-03-25T01:49:00.406Z,2.10
2019-03-25T01:51:28.608Z,2.00
2019-03-25T01:53:56.815Z,2.10
2019-03-25T01:56:25.251Z,2.10
2019-03-25T01:58:53.435Z,2.10
2019-03-25T02:01:21.762Z,2.10
2019-03-25T02:03:50.000Z,2.00
2019-03-25T02:06:18.207Z,2.10
2019-03-25T02:08:46.417Z,2.10
2019-03-25T02:11:15.176Z,2.00
2019-03-25T02:13:43.333Z,2.10
2019-03-25T02:16:11.616Z,2.00
2019-03-25T02:18:39.847Z,2.00
2019-03-25T02:21:08.679Z,1.90
2019-03-25T02:23:36.897Z,1.90
2019-03-25T02:26:05.120Z,1.90
2019-03-25T02:28:33.703Z,1.90
2019-03-25T02:31:01.876Z,1.90
2019-03-25T02:33:30.575Z,1.80
2019-03-25T02:35:58.779Z,1.70
2019-03-25T02:38:27.008Z,1.80
2019-03-25T02:40:55.422Z,1.60
2019-03-25T02:43:23.635Z,1.80
2019-03-25T02:45:51.852Z,1.70
2019-03-25T02:48:20.444Z,1.60
2019-03-25T02:50:48.653Z,1.40
2019-03-25T02:53:16.841Z,1.50
2019-03-25T02:55:46.125Z,1.50
2019-03-25T02:58:14.314Z,1.50
2019-03-25T03:00:42.470Z,1.70
2019-03-25T03:03:11.126Z,1.80
2019-03-25T03:05:39.344Z,1.90
2019-03-25T03:08:07.544Z,1.90
2019-03-25T03:10:36.131Z,2.00
2019-03-25T03:13:04.686Z,2.10
2019-03-25T03:15:32.960Z,2.20
2019-03-25T03:18:02.315Z,2.30
2019-03-25T03:20:30.526Z,2.40
2019-03-25T03:22:58.734Z,2.40
2019-03-25T03:25:28.119Z,2.40
2019-03-25T03:27:56.315Z,2.40
2019-03-25T03:30:24.563Z,2.30
2019-03-25T03:32:52.855Z,2.30
2019-03-25T03:35:25.183Z,2.30
2019-03-25T03:37:53.421Z,2.20
2019-03-25T03:40:21.814Z,2.10
2019-03-25T03:42:50.129Z,2.00
2019-03-25T03:45:18.300Z,2.10
2019-03-25T03:47:49.261Z,2.00
2019-03-25T03:50:27.657Z,2.00
2019-03-25T03:52:56.215Z,2.10
2019-03-25T03:55:24.804Z,2.20
2019-03-25T03:57:55.854Z,2.30
2019-03-25T04:00:29.204Z,2.40
2019-03-25T04:02:57.373Z,2.50
2019-03-25T04:05:25.562Z,2.50
2019-03-25T04:07:56.176Z,2.60
2019-03-25T04:10:24.650Z,2.50
2019-03-25T04:12:53.475Z,2.50
2019-03-25T04:15:29.678Z,2.50
2019-03-25T04:17:58.363Z,2.40
2019-03-25T04:20:26.555Z,2.30
2019-03-25T04:22:54.890Z,2.30
2019-03-25T04:25:23.006Z,2.30
2019-03-25T04:27:51.196Z,2.30
2019-03-25T04:30:19.540Z,2.40
2019-03-25T04:32:49.111Z,2.40
2019-03-25T04:35:17.258Z,2.40
2019-03-25T04:37:47.370Z,2.40
2019-03-25T04:40:15.680Z,2.40
2019-03-25T04:42:43.832Z,2.40
2019-03-25T04:45:12.981Z,2.50
2019-03-25T04:47:41.226Z,2.50
2019-03-25T04:50:09.864Z,2.40
2019-03-25T04:52:38.247Z,2.60
2019-03-25T04:55:07.084Z,2.70
2019-03-25T04:57:35.273Z,2.60
2019-03-25T05:00:04.522Z,2.60
2019-03-25T05:02:32.868Z,2.70
2019-03-25T05:05:01.496Z,2.70
2019-03-25T05:07:32.217Z,2.80
2019-03-25T05:10:06.128Z,2.80
2019-03-25T05:12:37.677Z,2.90
2019-03-25T05:15:07.922Z,2.80
2019-03-25T05:17:37.550Z,2.80
2019-03-25T05:20:36.786Z,2.90
2019-03-25T05:23:23.334Z,2.90
2019-03-25T05:25:52.319Z,3.00
2019-03-25T05:28:22.829Z,3.10
2019-03-25T05:30:53.169Z,3.20
2019-03-25T05:33:22.425Z,3.30
2019-03-25T05:35:52.225Z,3.30
2019-03-25T05:38:23.041Z,3.30
2019-03-25T05:40:52.977Z,3.40
2019-03-25T05:43:26.316Z,3.40
2019-03-25T05:45:57.385Z,3.60
2019-03-25T05:48:28.172Z,3.70
2019-03-25T05:51:00.273Z,3.90
2019-03-25T05:53:29.363Z,4.10
2019-03-25T05:56:02.558Z,4.00
2019-03-25T05:58:42.383Z,4.10
2019-03-25T06:01:11.620Z,4.10
2019-03-25T06:04:01.827Z,4.20
2019-03-25T06:06:31.840Z,4.10
2019-03-25T06:09:13.710Z,4.10
2019-03-25T06:11:48.821Z,4.10
2019-03-25T06:14:30.675Z,4.00
2019-03-25T06:17:01.159Z,4.10
2019-03-25T06:20:07.242Z,4.20
2019-03-25T06:23:28.432Z,4.20
2019-03-25T06:29:14.640Z,4.20
2019-03-25T06:32:17.823Z,4.30
2019-03-25T06:41:57.233Z,4.20
2019-03-25T06:45:03.190Z,4.30
2019-03-25T06:48:36.086Z,4.30
2019-03-25T06:51:11.712Z,4.40
2019-03-25T06:53:40.757Z,4.30
2019-03-25T06:56:10.029Z,4.30
2019-03-25T06:58:50.844Z,4.20
2019-03-25T07:01:19.353Z,4.30
2019-03-25T07:04:16.091Z,4.30
2019-03-25T07:06:47.641Z,4.10
2019-03-25T07:09:18.585Z,4.00
2019-03-25T07:11:46.050Z,3.80
2019-03-25T07:14:19.846Z,3.50
2019-03-25T07:16:48.060Z,3.50
2019-03-25T07:19:17.927Z,3.70
2019-03-25T07:21:57.000Z,3.70
2019-03-25T07:24:30.387Z,3.70
2019-03-25T07:27:02.432Z,4.00
2019-03-25T07:29:37.725Z,4.10
2019-03-25T07:32:08.992Z,4.20
2019-03-25T07:34:57.593Z,4.30
2019-03-25T07:37:26.670Z,4.60
2019-03-25T07:40:07.367Z,4.70
2019-03-25T07:46:17.424Z,4.80
2019-03-25T07:48:45.687Z,4.80
2019-03-25T07:51:39.756Z,4.80
2019-03-25T07:54:41.675Z,5.30
2019-03-25T07:57:11.832Z,5.80
2019-03-25T08:00:13.521Z,5.70
2019-03-25T08:02:38.685Z,5.30
2019-03-25T08:05:09.266Z,5.50
2019-03-25T08:07:37.701Z,5.80
2019-03-25T08:10:08.578Z,5.40
2019-03-25T08:12:36.988Z,5.40
2019-03-25T08:15:07.312Z,7.60
2019-03-25T08:17:36.913Z,9.10
2019-03-25T08:20:28.739Z,10.20
2019-03-25T08:23:07.093Z,9.50
2019-03-25T08:26:00.744Z,9.00
2019-03-25T08:28:29.428Z,9.40
2019-03-25T08:30:58.946Z,8.00
2019-03-25T08:33:29.113Z,7.20
2019-03-25T08:36:09.039Z,6.90
2019-03-25T08:38:37.743Z,7.10
2019-03-25T08:41:08.831Z,6.50
2019-03-25T08:43:45.165Z,6.50
2019-03-25T08:49:31.752Z,6.60
2019-03-25T08:52:07.609Z,6.30
2019-03-25T08:54:49.904Z,6.10
2019-03-25T08:57:28.344Z,6.10
2019-03-25T08:59:57.870Z,6.90
2019-03-25T09:02:26.337Z,6.60
2019-03-25T09:09:12.299Z,6.40
2019-03-25T09:11:40.559Z,6.50
2019-03-25T09:14:08.746Z,6.40
2019-03-25T09:16:52.466Z,6.50
2019-03-25T09:19:48.234Z,6.80
2019-03-25T09:22:19.107Z,6.50
2019-03-25T09:24:49.177Z,6.20
2019-03-25T09:27:17.410Z,6.10
2019-03-25T09:29:45.801Z,5.70
2019-03-25T09:32:14.237Z,5.10
2019-03-25T09:34:42.444Z,4.60
2019-03-25T09:37:12.293Z,4.50
2019-03-25T09:39:44.521Z,4.20
2019-03-25T09:42:13.101Z,4.00
2019-03-25T09:44:41.604Z,3.60
2019-03-25T09:48:15.047Z,3.20
2019-03-25T09:54:25.704Z,3.40
2019-03-25T09:56:54.592Z,3.90
2019-03-25T09:59:23.867Z,4.00
2019-03-25T10:01:55.518Z,4.30
2019-03-25T10:04:24.114Z,4.40
2019-03-25T10:07:07.822Z,4.60
2019-03-25T10:09:36.397Z,4.70
2019-03-25T10:12:06.815Z,4.90
2019-03-25T10:14:35.096Z,5.20
2019-03-25T10:17:18.865Z,5.40
2019-03-25T10:20:11.101Z,5.50
2019-03-25T10:23:34.888Z,5.70
2019-03-25T10:30:26.745Z,5.80
2019-03-25T10:33:18.910Z,6.60
2019-03-25T10:35:55.576Z,6.80
2019-03-25T10:38:35.620Z,6.60
2019-03-25T10:44:51.377Z,7.10
2019-03-25T10:47:22.481Z,7.40
2019-03-25T10:49:50.907Z,7.30
2019-03-25T10:52:49.601Z,7.30
2019-03-25T10:55:26.629Z,7.20
2019-03-25T10:57:58.060Z,7.20
2019-03-25T11:00:26.442Z,7.20
2019-03-25T11:03:03.705Z,7.10
2019-03-25T11:06:16.479Z,7.10
2019-03-25T11:12:24.657Z,7.30
2019-03-25T11:15:19.167Z,7.30
2019-03-25T11:18:12.162Z,7.20
2019-03-25T11:20:56.652Z,7.20
2019-03-25T11:23:27.936Z,6.90
2019-03-25T11:25:58.315Z,5.00
2019-03-25T11:28:55.109Z,4.30
2019-03-25T11:31:32.365Z,4.20
2019-03-25T11:34:03.753Z,4.20
2019-03-25T11:36:31.941Z,4.10
2019-03-25T11:42:32.058Z,3.70
2019-03-25T11:45:17.049Z,3.60
2019-03-25T11:52:08.912Z,3.50
2019-03-25T11:54:40.210Z,3.50
2019-03-25T11:57:22.813Z,3.70
2019-03-25T12:03:27.197Z,3.90
2019-03-25T12:06:02.165Z,4.30
2019-03-25T12:08:31.717Z,4.40
2019-03-25T12:11:00.571Z,4.50
2019-03-25T12:13:33.678Z,4.50
2019-03-25T12:16:12.618Z,4.50
2019-03-25T12:19:36.229Z,4.80
2019-03-25T12:23:01.538Z,4.80
2019-03-25T12:26:10.702Z,5.00
2019-03-25T12:33:14.199Z,5.50
2019-03-25T12:35:56.986Z,6.00
2019-03-25T12:38:40.644Z,6.20
2019-03-25T12:41:35.797Z,5.90
2019-03-25T12:44:30.556Z,5.70
2019-03-25T12:47:17.161Z,5.40
2019-03-25T12:50:19.900Z,5.50
2019-03-25T12:53:39.373Z,5.40
2019-03-25T12:57:10.531Z,5.50
2019-03-25T13:04:22.306Z,4.90
2019-03-25T13:07:08.376Z,4.60
2019-03-25T13:13:47.086Z,5.00
2019-03-25T13:16:18.599Z,5.10
2019-03-25T13:18:47.227Z,5.10
2019-03-25T13:21:51.302Z,5.20
2019-03-25T13:24:35.330Z,5.60
2019-03-25T13:27:59.523Z,5.90
2019-03-25T13:33:12.274Z,6.40
2019-03-25T13:35:42.103Z,6.60
2019-03-25T13:39:23.897Z,6.70
2019-03-25T13:46:05.641Z,6.70
2019-03-25T13:48:46.987Z,6.40
2019-03-25T13:51:15.189Z,5.80
2019-03-25T13:53:46.639Z,5.80
2019-03-25T14:00:10.199Z,5.90
2019-03-25T14:03:23.900Z,5.80
2019-03-25T14:06:31.393Z,6.20
2019-03-25T14:09:24.353Z,6.00
2019-03-25T14:11:52.563Z,6.00
2019-03-25T14:17:51.186Z,6.20
2019-03-25T14:20:20.693Z,6.40
2019-03-25T14:22:50.111Z,6.40
2019-03-25T14:28:46.658Z,6.60
2019-03-25T14:35:32.151Z,7.00
2019-03-25T14:38:19.642Z,7.00
2019-03-25T14:40:48.169Z,6.80
2019-03-25T14:43:36.376Z,6.80
2019-03-25T14:46:15.279Z,6.90
2019-03-25T14:48:44.267Z,7.00
2019-03-25T14:51:29.253Z,7.20
2019-03-25T14:54:09.484Z,7.20
2019-03-25T14:56:55.523Z,7.10
2019-03-25T15:00:00.705Z,7.10
2019-03-25T15:02:44.228Z,7.20
2019-03-25T15:06:06.182Z,7.10
2019-03-25T15:08:36.182Z,7.10
2019-03-25T15:19:11.550Z,6.90
2019-03-25T15:22:08.233Z,7.10
2019-03-25T15:24:44.786Z,7.30
2019-03-25T15:28:02.836Z,7.60
2019-03-25T15:30:46.286Z,7.50
2019-03-25T15:33:18.475Z,7.20
2019-03-25T15:35:51.619Z,7.00
2019-03-25T15:38:25.524Z,7.10
2019-03-25T15:41:14.013Z,7.10
2019-03-25T15:43:42.721Z,7.10
2019-03-25T15:46:26.949Z,7.10
2019-03-25T15:49:11.310Z,6.90
2019-03-25T15:52:39.789Z,6.80
2019-03-25T15:58:43.747Z,6.90
2019-03-25T16:01:19.653Z,6.80
2019-03-25T16:04:03.003Z,6.80
2019-03-25T16:06:31.507Z,6.80
2019-03-25T16:09:02.776Z,6.80
2019-03-25T16:11:32.382Z,6.90
2019-03-25T16:15:01.595Z,6.80
2019-03-25T16:18:32.407Z,6.90
2019-03-25T16:25:04.554Z,6.80
2019-03-25T16:31:42.319Z,6.70
2019-03-25T16:34:15.955Z,6.50
2019-03-25T16:37:00.012Z,6.50
2019-03-25T16:39:50.794Z,6.60
2019-03-25T16:45:08.359Z,6.50
2019-03-25T16:47:38.505Z,6.40
2019-03-25T16:50:10.326Z,6.30
2019-03-25T16:53:13.128Z,6.20
2019-03-25T16:55:42.455Z,6.00
2019-03-25T16:58:12.778Z,5.90
2019-03-25T17:01:21.008Z,5.80
2019-03-25T17:04:13.425Z,5.70
2019-03-25T17:07:29.494Z,5.60
2019-03-25T17:10:20.302Z,5.40
2019-03-25T17:13:02.536Z,5.40
2019-03-25T17:16:02.524Z,5.20
2019-03-25T17:19:22.302Z,5.20
2019-03-25T17:22:31.928Z,5.20
2019-03-25T17:25:52.659Z,5.20
2019-03-25T17:31:35.833Z,5.00
2019-03-25T17:34:17.730Z,4.80
2019-03-25T17:36:49.074Z,4.60
2019-03-25T17:39:20.349Z,4.40
2019-03-25T17:42:03.472Z,4.20
2019-03-25T17:44:33.244Z,4.20
2019-03-25T17:47:13.332Z,4.20
2019-03-25T17:49:43.098Z,4.30
2019-03-25T17:52:11.310Z,4.20
2019-03-25T17:54:42.851Z,4.10
2019-03-25T17:57:11.087Z,4.10
2019-03-25T17:59:50.150Z,4.10
2019-03-25T18:07:14.549Z,4.00
2019-03-25T18:13:42.491Z,3.80
2019-03-25T18:16:12.092Z,3.80
2019-03-25T18:18:46.829Z,3.90
2019-03-25T18:21:18.530Z,3.80
2019-03-25T18:23:57.315Z,3.60
2019-03-25T18:26:25.779Z,3.50
2019-03-25T18:28:59.699Z,3.50
2019-03-25T18:31:42.870Z,3.40
2019-03-25T18:34:44.157Z,3.40
2019-03-25T18:44:18.810Z,3.30
2019-03-25T18:46:47.189Z,3.20
2019-03-25T18:49:25.634Z,3.20
2019-03-25T18:52:03.433Z,3.30
2019-03-25T18:54:39.772Z,3.30
2019-03-25T18:57:09.173Z,3.40
2019-03-25T19:00:04.611Z,3.40
2019-03-25T19:02:37.443Z,3.40
2019-03-25T19:05:18.367Z,3.50
2019-03-25T19:07:55.095Z,3.60
2019-03-25T19:10:32.657Z,3.60
2019-03-25T19:13:04.306Z,3.60
2019-03-25T19:16:05.538Z,3.60
2019-03-25T19:19:42.822Z,3.80
2019-03-25T19:22:25.946Z,3.80
2019-03-25T19:24:57.784Z,3.80
2019-03-25T19:27:37.948Z,3.70
2019-03-25T19:30:10.953Z,3.60
2019-03-25T19:32:53.106Z,3.60
2019-03-25T19:35:31.235Z,3.60
2019-03-25T19:38:34.789Z,3.50
2019-03-25T19:41:12.199Z,3.50
2019-03-25T19:44:08.773Z,3.60
2019-03-25T19:46:54.510Z,3.60
2019-03-25T19:49:26.197Z,3.60
2019-03-25T19:52:09.710Z,3.70
2019-03-25T19:55:17.369Z,3.80
2019-03-25T19:57:49.093Z,3.80
2019-03-25T20:00:23.535Z,3.70
2019-03-25T20:02:54.585Z,3.80
2019-03-25T20:05:22.966Z,3.80
2019-03-25T20:07:51.632Z,3.80
2019-03-25T20:10:29.035Z,3.80
2019-03-25T20:13:05.621Z,3.70
2019-03-25T20:15:46.985Z,3.80
2019-03-25T20:18:28.940Z,3.80
2019-03-25T20:21:00.406Z,3.90
2019-03-25T20:23:32.880Z,3.80
2019-03-25T20:26:12.164Z,3.80
2019-03-25T20:28:40.565Z,3.80
2019-03-25T20:31:11.683Z,3.70
2019-03-25T20:33:41.471Z,3.70
2019-03-25T20:36:19.787Z,3.80
2019-03-25T20:39:01.840Z,3.80
2019-03-25T20:41:32.567Z,3.90
2019-03-25T20:44:02.264Z,3.80
2019-03-25T20:46:31.662Z,3.90
2019-03-25T20:49:02.990Z,3.80
2019-03-25T20:51:31.381Z,3.70
2019-03-25T20:53:59.571Z,3.70
2019-03-25T20:56:32.350Z,3.60
2019-03-25T20:59:01.125Z,3.70
2019-03-25T21:01:29.378Z,3.80
2019-03-25T21:03:57.807Z,3.80
2019-03-25T21:06:39.268Z,3.70
2019-03-25T21:09:17.615Z,3.80
2019-03-25T21:11:45.955Z,3.90
2019-03-25T21:14:16.723Z,3.90
2019-03-25T21:21:00.357Z,3.80
2019-03-25T21:23:31.743Z,3.60
2019-03-25T21:26:01.636Z,3.50
2019-03-25T21:28:30.387Z,3.60
2019-03-25T21:31:03.234Z,3.60
2019-03-25T21:33:43.110Z,3.60
2019-03-25T21:36:28.257Z,3.60
2019-03-25T21:38:57.840Z,3.60
2019-03-25T21:41:34.454Z,3.60
2019-03-25T21:44:28.776Z,3.70
2019-03-25T21:47:00.509Z,3.70
2019-03-25T21:49:31.860Z,3.80
2019-03-25T21:52:02.834Z,3.70
2019-03-25T21:54:35.264Z,3.80
2019-03-25T21:57:04.908Z,3.90
2019-03-25T21:59:34.152Z,3.90
2019-03-25T22:02:02.917Z,3.90
2019-03-25T22:04:32.454Z,3.90
2019-03-25T22:07:02.181Z,3.80
2019-03-25T22:09:42.132Z,3.90
2019-03-25T22:12:11.529Z,4.00
2019-03-25T22:14:41.490Z,4.00
2019-03-25T22:17:26.225Z,4.00
2019-03-25T22:19:54.813Z,4.00
2019-03-25T22:22:23.104Z,4.00
2019-03-25T22:24:52.700Z,4.00
2019-03-25T22:27:23.980Z,4.00
2019-03-25T22:29:53.709Z,3.90
2019-03-25T22:32:23.495Z,3.90
2019-03-25T22:34:55.332Z,3.80
2019-03-25T22:37:26.140Z,3.80
2019-03-25T22:39:55.739Z,3.80
2019-03-25T22:42:27.347Z,3.80
2019-03-25T22:44:56.244Z,3.90
2019-03-25T22:47:24.482Z,3.90
2019-03-25T22:49:57.234Z,3.90
2019-03-25T22:52:25.836Z,3.90
2019-03-25T22:54:57.436Z,4.00
2019-03-25T22:57:27.510Z,3.90
2019-03-25T23:00:04.487Z,3.90
2019-03-25T23:02:34.142Z,3.80
2019-03-25T23:05:03.881Z,3.90
2019-03-25T23:07:32.310Z,3.80
2019-03-25T23:10:00.624Z,3.80
2019-03-25T23:12:30.395Z,3.90
2019-03-25T23:15:00.103Z,3.90
2019-03-25T23:17:31.578Z,3.90
2019-03-25T23:19:59.777Z,3.90
2019-03-25T23:22:28.592Z,4.00
2019-03-25T23:25:00.983Z,4.00
2019-03-25T23:27:29.465Z,3.90
2019-03-25T23:30:04.189Z,3.90
2019-03-25T23:32:32.439Z,4.00
2019-03-25T23:35:01.089Z,4.00
2019-03-25T23:37:30.630Z,4.00
2019-03-25T23:39:59.947Z,4.00
2019-03-25T23:42:28.165Z,4.00
2019-03-25T23:45:01.963Z,4.00
2019-03-25T23:47:33.616Z,3.90
2019-03-25T23:50:07.008Z,3.90
2019-03-25T23:52:35.569Z,3.80
2019-03-25T23:55:16.053Z,3.80
2019-03-25T23:57:44.708Z,3.80
